sensor_id;sensor_type;location;lat;lon;timestamp;pressure;altitude;pressure_sealevel;temperature;humidity
35435;BME280;21556;55.782;37.528;2023-05-13T00:00:39;100153.69;;;14.96;78.10
35435;BME280;21556;55.782;37.528;2023-05-13T00:03:07;100157.25;;;15.09;77.05
35435;BME280;21556;55.782;37.528;2023-05-13T00:05:33;100151.13;;;15.13;75.84
35435;BME280;21556;55.782;37.528;2023-05-13T00:08:00;100158.94;;;14.95;79.62
35435;BME280;21556;55.782;37.528;2023-05-13T00:10:32;100162.41;;;14.84;82.56
35435;BME280;21556;55.782;37.528;2023-05-13T00:13:03;100159.78;;;14.86;82.89
35435;BME280;21556;55.782;37.528;2023-05-13T00:15:29;100150.34;;;15.38;83.65
35435;BME280;21556;55.782;37.528;2023-05-13T00:18:00;100171.34;;;15.05;88.63
35435;BME280;21556;55.782;37.528;2023-05-13T00:20:29;100162.63;;;15.18;85.53
35435;BME280;21556;55.782;37.528;2023-05-13T00:23:04;100167.91;;;15.24;83.51
35435;BME280;21556;55.782;37.528;2023-05-13T00:25:30;100167.78;;;14.98;90.83
35435;BME280;21556;55.782;37.528;2023-05-13T00:27:57;100167.84;;;15.09;88.95
35435;BME280;21556;55.782;37.528;2023-05-13T00:30:23;100173.94;;;14.97;93.64
35435;BME280;21556;55.782;37.528;2023-05-13T00:33:15;100169.63;;;15.16;93.65
35435;BME280;21556;55.782;37.528;2023-05-13T00:35:42;100177.53;;;15.10;93.84
35435;BME280;21556;55.782;37.528;2023-05-13T00:38:15;100175.69;;;14.98;94.55
35435;BME280;21556;55.782;37.528;2023-05-13T00:40:44;100168.69;;;15.06;92.88
35435;BME280;21556;55.782;37.528;2023-05-13T00:43:13;100171.34;;;15.09;93.90
35435;BME280;21556;55.782;37.528;2023-05-13T00:45:46;100179.97;;;14.79;99.19
35435;BME280;21556;55.782;37.528;2023-05-13T00:48:14;100180.09;;;14.98;96.21
35435;BME280;21556;55.782;37.528;2023-05-13T00:50:42;100179.16;;;14.91;96.95
35435;BME280;21556;55.782;37.528;2023-05-13T00:53:11;100173.88;;;14.91;97.14
35435;BME280;21556;55.782;37.528;2023-05-13T00:55:44;100180.94;;;14.92;95.89
35435;BME280;21556;55.782;37.528;2023-05-13T00:58:17;100174.41;;;14.45;100.00
35435;BME280;21556;55.782;37.528;2023-05-13T01:01:08;100181.38;;;14.34;100.00
35435;BME280;21556;55.782;37.528;2023-05-13T01:06:51;100187.03;;;14.79;99.45
35435;BME280;21556;55.782;37.528;2023-05-13T01:09:32;100185.22;;;14.72;100.00
35435;BME280;21556;55.782;37.528;2023-05-13T01:12:07;100183.19;;;14.44;100.00
35435;BME280;21556;55.782;37.528;2023-05-13T01:14:39;100181.66;;;14.68;100.00
35435;BME280;21556;55.782;37.528;2023-05-13T01:17:30;100187.06;;;14.83;96.40
35435;BME280;21556;55.782;37.528;2023-05-13T01:20:03;100181.69;;;14.71;96.19
35435;BME280;21556;55.782;37.528;2023-05-13T01:22:31;100186.25;;;14.98;93.22
35435;BME280;21556;55.782;37.528;2023-05-13T01:24:58;100182.47;;;14.56;98.39
35435;BME280;21556;55.782;37.528;2023-05-13T01:27:27;100187.72;;;14.53;99.15
35435;BME280;21556;55.782;37.528;2023-05-13T01:29:56;100184.56;;;15.05;93.83
35435;BME280;21556;55.782;37.528;2023-05-13T01:32:32;100191.38;;;14.72;97.20
35435;BME280;21556;55.782;37.528;2023-05-13T01:35:05;100193.78;;;14.46;97.24
35435;BME280;21556;55.782;37.528;2023-05-13T01:37:39;100189.47;;;14.54;97.81
35435;BME280;21556;55.782;37.528;2023-05-13T01:40:09;100192.31;;;14.80;95.09
35435;BME280;21556;55.782;37.528;2023-05-13T01:42:36;100193.91;;;14.58;95.48
35435;BME280;21556;55.782;37.528;2023-05-13T01:45:03;100216.38;;;14.16;95.37
35435;BME280;21556;55.782;37.528;2023-05-13T01:47:30;100225.13;;;14.15;97.35
35435;BME280;21556;55.782;37.528;2023-05-13T01:50:02;100206.41;;;13.89;100.00
35435;BME280;21556;55.782;37.528;2023-05-13T01:52:29;100217.19;;;14.09;97.65
35435;BME280;21556;55.782;37.528;2023-05-13T01:54:59;100220.13;;;13.59;100.00
35435;BME280;21556;55.782;37.528;2023-05-13T01:57:26;100220.94;;;13.57;100.00
35435;BME280;21556;55.782;37.528;2023-05-13T01:59:53;100217.94;;;13.99;98.68
35435;BME280;21556;55.782;37.528;2023-05-13T02:02:19;100223.97;;;13.89;99.45
35435;BME280;21556;55.782;37.528;2023-05-13T02:04:47;100223.91;;;13.83;98.16
35435;BME280;21556;55.782;37.528;2023-05-13T02:07:15;100231.00;;;13.90;98.69
35435;BME280;21556;55.782;37.528;2023-05-13T02:09:45;100234.41;;;13.78;98.67
35435;BME280;21556;55.782;37.528;2023-05-13T02:12:11;100231.72;;;13.73;100.00
35435;BME280;21556;55.782;37.528;2023-05-13T02:14:38;100234.53;;;13.87;100.00
35435;BME280;21556;55.782;37.528;2023-05-13T02:17:04;100228.03;;;13.59;100.00
35435;BME280;21556;55.782;37.528;2023-05-13T02:19:31;100230.81;;;13.71;100.00
35435;BME280;21556;55.782;37.528;2023-05-13T02:21:57;100235.09;;;13.62;100.00
35435;BME280;21556;55.782;37.528;2023-05-13T02:24:23;100230.88;;;13.78;100.00
35435;BME280;21556;55.782;37.528;2023-05-13T02:26:50;100234.22;;;13.63;100.00
35435;BME280;21556;55.782;37.528;2023-05-13T02:29:18;100235.22;;;13.72;100.00
35435;BME280;21556;55.782;37.528;2023-05-13T02:31:45;100231.72;;;13.73;100.00
35435;BME280;21556;55.782;37.528;2023-05-13T02:34:13;100241.47;;;13.81;100.00
35435;BME280;21556;55.782;37.528;2023-05-13T02:36:39;100238.09;;;13.94;100.00
35435;BME280;21556;55.782;37.528;2023-05-13T02:39:07;100240.00;;;14.06;100.00
35435;BME280;21556;55.782;37.528;2023-05-13T02:41:34;100237.97;;;13.80;100.00
35435;BME280;21556;55.782;37.528;2023-05-13T02:44:04;100243.78;;;13.56;100.00
35435;BME280;21556;55.782;37.528;2023-05-13T02:46:30;100241.66;;;13.28;100.00
35435;BME280;21556;55.782;37.528;2023-05-13T02:48:57;100242.72;;;13.43;100.00
35435;BME280;21556;55.782;37.528;2023-05-13T02:51:25;100242.00;;;13.52;100.00
35435;BME280;21556;55.782;37.528;2023-05-13T02:53:51;100241.34;;;13.70;100.00
35435;BME280;21556;55.782;37.528;2023-05-13T02:56:18;100243.00;;;13.62;100.00
35435;BME280;21556;55.782;37.528;2023-05-13T02:58:45;100248.28;;;13.62;100.00
35435;BME280;21556;55.782;37.528;2023-05-13T03:01:15;100250.41;;;13.92;98.97
35435;BME280;21556;55.782;37.528;2023-05-13T03:03:44;100241.78;;;14.08;97.27
35435;BME280;21556;55.782;37.528;2023-05-13T03:06:14;100247.13;;;14.14;98.98
35435;BME280;21556;55.782;37.528;2023-05-13T03:08:43;100249.75;;;14.14;97.47
35435;BME280;21556;55.782;37.528;2023-05-13T03:11:10;100245.28;;;14.06;98.21
35435;BME280;21556;55.782;37.528;2023-05-13T03:13:39;100241.75;;;14.05;99.29
35435;BME280;21556;55.782;37.528;2023-05-13T03:16:06;100251.59;;;14.20;98.92
35435;BME280;21556;55.782;37.528;2023-05-13T03:18:34;100245.53;;;14.30;99.40
35435;BME280;21556;55.782;37.528;2023-05-13T03:21:03;100242.91;;;14.33;99.62
35435;BME280;21556;55.782;37.528;2023-05-13T03:23:39;100249.00;;;14.25;99.38
35435;BME280;21556;55.782;37.528;2023-05-13T03:26:07;100247.25;;;14.27;99.17
35435;BME280;21556;55.782;37.528;2023-05-13T03:28:33;100250.06;;;14.42;97.79
35435;BME280;21556;55.782;37.528;2023-05-13T03:31:03;100247.47;;;14.47;96.15
35435;BME280;21556;55.782;37.528;2023-05-13T03:33:34;100256.19;;;14.39;97.90
35435;BME280;21556;55.782;37.528;2023-05-13T03:36:01;100252.63;;;14.36;97.63
35435;BME280;21556;55.782;37.528;2023-05-13T03:38:30;100254.38;;;14.37;97.03
35435;BME280;21556;55.782;37.528;2023-05-13T03:41:05;100256.34;;;14.55;95.00
35435;BME280;21556;55.782;37.528;2023-05-13T03:43:32;100257.38;;;14.69;95.87
35435;BME280;21556;55.782;37.528;2023-05-13T03:46:03;100252.16;;;14.77;98.54
35435;BME280;21556;55.782;37.528;2023-05-13T03:48:32;100261.16;;;15.00;91.61
35435;BME280;21556;55.782;37.528;2023-05-13T03:51:01;100262.91;;;15.00;87.74
35435;BME280;21556;55.782;37.528;2023-05-13T03:53:33;100256.72;;;14.98;87.74
35435;BME280;21556;55.782;37.528;2023-05-13T03:56:04;100256.81;;;15.08;87.61
35435;BME280;21556;55.782;37.528;2023-05-13T03:58:32;100264.84;;;15.22;86.34
35435;BME280;21556;55.782;37.528;2023-05-13T04:00:59;100262.06;;;15.04;90.27
35435;BME280;21556;55.782;37.528;2023-05-13T04:03:26;100251.63;;;15.27;89.52
35435;BME280;21556;55.782;37.528;2023-05-13T04:05:52;100249.91;;;15.35;91.87
35435;BME280;21556;55.782;37.528;2023-05-13T04:08:20;100257.88;;;15.39;86.63
35435;BME280;21556;55.782;37.528;2023-05-13T04:10:49;100256.31;;;15.69;82.95
35435;BME280;21556;55.782;37.528;2023-05-13T04:13:15;100257.31;;;15.94;81.26
35435;BME280;21556;55.782;37.528;2023-05-13T04:15:45;100249.44;;;16.23;76.17
35435;BME280;21556;55.782;37.528;2023-05-13T04:18:19;100247.69;;;16.39;75.13
35435;BME280;21556;55.782;37.528;2023-05-13T04:20:47;100250.34;;;16.28;77.47
35435;BME280;21556;55.782;37.528;2023-05-13T04:23:13;100247.72;;;16.34;74.48
35435;BME280;21556;55.782;37.528;2023-05-13T04:25:42;100246.81;;;16.28;78.56
35435;BME280;21556;55.782;37.528;2023-05-13T04:28:09;100239.75;;;16.51;73.81
35435;BME280;21556;55.782;37.528;2023-05-13T04:30:41;100246.84;;;16.60;71.65
35435;BME280;21556;55.782;37.528;2023-05-13T04:33:08;100238.00;;;16.73;71.01
35435;BME280;21556;55.782;37.528;2023-05-13T04:35:41;100244.22;;;16.88;69.87
35435;BME280;21556;55.782;37.528;2023-05-13T04:38:09;100244.25;;;16.92;69.79
35435;BME280;21556;55.782;37.528;2023-05-13T04:40:36;100243.34;;;16.90;72.01
35435;BME280;21556;55.782;37.528;2023-05-13T04:43:06;100250.41;;;16.77;72.60
35435;BME280;21556;55.782;37.528;2023-05-13T04:45:40;100252.19;;;16.92;72.02
35435;BME280;21556;55.782;37.528;2023-05-13T04:48:16;100243.34;;;16.89;69.77
35435;BME280;21556;55.782;37.528;2023-05-13T04:50:46;100250.41;;;16.97;69.82
35435;BME280;21556;55.782;37.528;2023-05-13T04:53:15;100251.31;;;16.99;64.98
35435;BME280;21556;55.782;37.528;2023-05-13T04:55:48;100259.25;;;17.01;65.50
35435;BME280;21556;55.782;37.528;2023-05-13T04:58:15;100258.34;;;17.16;64.45
35435;BME280;21556;55.782;37.528;2023-05-13T05:00:53;100260.09;;;17.20;65.08
35435;BME280;21556;55.782;37.528;2023-05-13T05:03:23;100260.97;;;17.29;63.97
35435;BME280;21556;55.782;37.528;2023-05-13T05:05:56;100255.69;;;17.25;62.26
35435;BME280;21556;55.782;37.528;2023-05-13T05:08:25;100250.34;;;17.37;57.31
35435;BME280;21556;55.782;37.528;2023-05-13T05:10:53;100248.56;;;17.35;58.29
35435;BME280;21556;55.782;37.528;2023-05-13T05:13:22;100254.75;;;17.50;58.33
35435;BME280;21556;55.782;37.528;2023-05-13T05:15:49;100247.66;;;17.46;57.03
35435;BME280;21556;55.782;37.528;2023-05-13T05:18:23;100252.94;;;17.57;56.99
35435;BME280;21556;55.782;37.528;2023-05-13T05:20:50;100252.88;;;17.74;54.16
35435;BME280;21556;55.782;37.528;2023-05-13T05:23:19;100252.00;;;17.84;55.52
35435;BME280;21556;55.782;37.528;2023-05-13T05:25:46;100251.16;;;17.76;56.33
35435;BME280;21556;55.782;37.528;2023-05-13T05:28:18;100250.25;;;17.80;53.27
35435;BME280;21556;55.782;37.528;2023-05-13T05:30:45;100246.53;;;18.16;50.40
35435;BME280;21556;55.782;37.528;2023-05-13T05:33:24;100243.94;;;18.02;49.39
35435;BME280;21556;55.782;37.528;2023-05-13T05:35:57;100249.22;;;18.09;47.80
35435;BME280;21556;55.782;37.528;2023-05-13T05:38:31;100249.91;;;18.41;46.04
35435;BME280;21556;55.782;37.528;2023-05-13T05:40:58;100249.13;;;18.22;45.52
35435;BME280;21556;55.782;37.528;2023-05-13T05:43:28;100247.97;;;18.71;44.88
35435;BME280;21556;55.782;37.528;2023-05-13T05:46:00;100237.16;;;18.92;42.58
35435;BME280;21556;55.782;37.528;2023-05-13T05:48:31;100234.16;;;19.26;40.82
35435;BME280;21556;55.782;37.528;2023-05-13T05:51:12;100246.97;;;19.70;40.35
35435;BME280;21556;55.782;37.528;2023-05-13T05:53:43;100237.41;;;19.54;40.43
35435;BME280;21556;55.782;37.528;2023-05-13T05:56:15;100239.06;;;19.64;39.05
35435;BME280;21556;55.782;37.528;2023-05-13T05:58:47;100240.91;;;20.26;38.61
35435;BME280;21556;55.782;37.528;2023-05-13T06:01:26;100248.03;;;20.25;38.64
35435;BME280;21556;55.782;37.528;2023-05-13T06:03:53;100243.00;;;20.05;38.19
35435;BME280;21556;55.782;37.528;2023-05-13T06:06:22;100245.31;;;20.30;37.97
35435;BME280;21556;55.782;37.528;2023-05-13T06:08:55;100234.97;;;20.70;36.79
35435;BME280;21556;55.782;37.528;2023-05-13T06:11:24;100231.63;;;20.56;36.39
35435;BME280;21556;55.782;37.528;2023-05-13T06:13:52;100240.03;;;20.85;36.46
35435;BME280;21556;55.782;37.528;2023-05-13T06:16:22;100236.53;;;20.82;36.01
35435;BME280;21556;55.782;37.528;2023-05-13T06:25:57;100232.63;;;21.01;36.41
35435;BME280;21556;55.782;37.528;2023-05-13T06:28:26;100242.06;;;21.22;36.43
35435;BME280;21556;55.782;37.528;2023-05-13T06:30:57;100233.84;;;21.33;35.34
35435;BME280;21556;55.782;37.528;2023-05-13T06:33:35;100230.47;;;21.23;35.28
35435;BME280;21556;55.782;37.528;2023-05-13T06:36:07;100232.09;;;21.30;34.82
35435;BME280;21556;55.782;37.528;2023-05-13T06:38:40;100225.19;;;21.68;35.71
35435;BME280;21556;55.782;37.528;2023-05-13T06:41:09;100223.75;;;21.92;33.79
35435;BME280;21556;55.782;37.528;2023-05-13T06:43:37;100219.53;;;22.61;32.76
35435;BME280;21556;55.782;37.528;2023-05-13T06:46:20;100221.72;;;22.44;33.60
35435;BME280;21556;55.782;37.528;2023-05-13T06:49:13;100219.31;;;22.33;33.22
35435;BME280;21556;55.782;37.528;2023-05-13T06:51:39;100219.97;;;22.44;33.41
35435;BME280;21556;55.782;37.528;2023-05-13T06:54:06;100225.41;;;22.40;34.12
35435;BME280;21556;55.782;37.528;2023-05-13T06:56:47;100216.28;;;22.48;33.49
35435;BME280;21556;55.782;37.528;2023-05-13T06:59:23;100220.78;;;22.48;33.70
35435;BME280;21556;55.782;37.528;2023-05-13T07:01:52;100219.69;;;22.91;32.60
35435;BME280;21556;55.782;37.528;2023-05-13T07:04:45;100209.97;;;22.87;32.05
35435;BME280;21556;55.782;37.528;2023-05-13T07:07:16;100206.81;;;22.71;31.24
35435;BME280;21556;55.782;37.528;2023-05-13T07:09:50;100206.78;;;23.08;31.81
35435;BME280;21556;55.782;37.528;2023-05-13T07:12:23;100201.28;;;23.45;31.67
35435;BME280;21556;55.782;37.528;2023-05-13T07:14:58;100195.59;;;24.46;30.25
35435;BME280;21556;55.782;37.528;2023-05-13T07:17:35;100190.78;;;25.09;29.63
35435;BME280;21556;55.782;37.528;2023-05-13T07:20:09;100190.47;;;24.65;28.98
35435;BME280;21556;55.782;37.528;2023-05-13T07:22:36;100177.31;;;25.59;29.12
35435;BME280;21556;55.782;37.528;2023-05-13T07:25:06;100179.31;;;25.78;29.09
35435;BME280;21556;55.782;37.528;2023-05-13T07:27:48;100188.94;;;25.36;28.07
35435;BME280;21556;55.782;37.528;2023-05-13T07:30:25;100174.56;;;25.86;27.13
35435;BME280;21556;55.782;37.528;2023-05-13T07:32:56;100176.53;;;25.81;26.13
35435;BME280;21556;55.782;37.528;2023-05-13T07:35:48;100167.16;;;26.14;25.69
35435;BME280;21556;55.782;37.528;2023-05-13T07:38:20;100159.25;;;27.57;23.59
35435;BME280;21556;55.782;37.528;2023-05-13T07:40:52;100158.00;;;28.21;23.70
35435;BME280;21556;55.782;37.528;2023-05-13T07:43:27;100174.00;;;26.00;24.91
35435;BME280;21556;55.782;37.528;2023-05-13T07:46:01;100167.34;;;26.96;23.97
35435;BME280;21556;55.782;37.528;2023-05-13T07:48:32;100146.50;;;28.18;22.58
35435;BME280;21556;55.782;37.528;2023-05-13T07:51:02;100168.06;;;28.37;23.04
35435;BME280;21556;55.782;37.528;2023-05-13T07:53:31;100165.41;;;28.35;22.72
35435;BME280;21556;55.782;37.528;2023-05-13T07:56:06;100154.13;;;28.46;22.37
35435;BME280;21556;55.782;37.528;2023-05-13T07:58:32;100153.28;;;27.10;22.86
35435;BME280;21556;55.782;37.528;2023-05-13T08:01:01;100165.38;;;28.73;22.01
35435;BME280;21556;55.782;37.528;2023-05-13T08:03:31;100157.63;;;29.01;21.32
35435;BME280;21556;55.782;37.528;2023-05-13T08:06:01;100156.13;;;29.29;21.69
35435;BME280;21556;55.782;37.528;2023-05-13T08:08:29;100153.25;;;28.45;21.96
35435;BME280;21556;55.782;37.528;2023-05-13T08:10:57;100162.16;;;28.28;21.50
35435;BME280;21556;55.782;37.528;2023-05-13T08:13:23;100158.84;;;28.04;21.25
35435;BME280;21556;55.782;37.528;2023-05-13T08:15:59;100161.09;;;27.95;21.14
35435;BME280;21556;55.782;37.528;2023-05-13T08:18:30;100159.41;;;28.30;21.33
35435;BME280;21556;55.782;37.528;2023-05-13T08:20:59;100161.78;;;28.00;21.47
35435;BME280;21556;55.782;37.528;2023-05-13T08:23:26;100159.41;;;28.30;21.07
35435;BME280;21556;55.782;37.528;2023-05-13T08:26:00;100161.88;;;28.71;20.73
35435;BME280;21556;55.782;37.528;2023-05-13T08:28:27;100160.56;;;28.43;21.22
35435;BME280;21556;55.782;37.528;2023-05-13T08:30:54;100150.59;;;27.89;21.34
35435;BME280;21556;55.782;37.528;2023-05-13T08:33:29;100151.72;;;28.76;21.29
35435;BME280;21556;55.782;37.528;2023-05-13T08:36:00;100150.94;;;28.38;21.28
35435;BME280;21556;55.782;37.528;2023-05-13T08:38:27;100143.03;;;28.52;21.00
35435;BME280;21556;55.782;37.528;2023-05-13T08:40:54;100144.81;;;28.88;20.63
35435;BME280;21556;55.782;37.528;2023-05-13T08:43:26;100149.53;;;29.01;21.01
35435;BME280;21556;55.782;37.528;2023-05-13T08:46:11;100137.25;;;29.45;20.81
35435;BME280;21556;55.782;37.528;2023-05-13T08:48:41;100139.56;;;29.53;20.84
35435;BME280;21556;55.782;37.528;2023-05-13T08:51:12;100129.66;;;29.36;20.44
35435;BME280;21556;55.782;37.528;2023-05-13T08:53:41;100134.75;;;30.07;20.02
35435;BME280;21556;55.782;37.528;2023-05-13T08:56:09;100133.84;;;28.73;20.38
35435;BME280;21556;55.782;37.528;2023-05-13T08:58:47;100134.81;;;28.00;20.64
35435;BME280;21556;55.782;37.528;2023-05-13T09:01:14;100132.88;;;28.74;20.72
35435;BME280;21556;55.782;37.528;2023-05-13T09:03:57;100129.56;;;29.04;20.89
35435;BME280;21556;55.782;37.528;2023-05-13T09:06:32;100140.03;;;27.84;21.71
35435;BME280;21556;55.782;37.528;2023-05-13T09:09:03;100138.88;;;28.08;21.59
35435;BME280;21556;55.782;37.528;2023-05-13T09:11:35;100146.06;;;27.10;22.70
35435;BME280;21556;55.782;37.528;2023-05-13T09:14:04;100140.91;;;28.22;22.36
35435;BME280;21556;55.782;37.528;2023-05-13T09:16:43;100128.78;;;29.02;21.79
35435;BME280;21556;55.782;37.528;2023-05-13T09:19:12;100127.16;;;29.15;21.36
35435;BME280;21556;55.782;37.528;2023-05-13T09:21:47;100128.91;;;28.82;22.19
35435;BME280;21556;55.782;37.528;2023-05-13T09:24:17;100122.91;;;28.04;21.50
35435;BME280;21556;55.782;37.528;2023-05-13T09:27:09;100114.41;;;29.01;21.12
35435;BME280;21556;55.782;37.528;2023-05-13T09:29:37;100119.28;;;29.61;20.95
35435;BME280;21556;55.782;37.528;2023-05-13T09:32:11;100095.81;;;29.13;20.88
35435;BME280;21556;55.782;37.528;2023-05-13T09:34:46;100100.56;;;30.21;19.96
35435;BME280;21556;55.782;37.528;2023-05-13T09:37:17;100096.56;;;30.43;19.09
35435;BME280;21556;55.782;37.528;2023-05-13T09:39:53;100094.13;;;29.43;20.04
35435;BME280;21556;55.782;37.528;2023-05-13T09:42:22;100097.44;;;29.15;20.26
35435;BME280;21556;55.782;37.528;2023-05-13T09:45:09;100104.63;;;28.64;21.13
35435;BME280;21556;55.782;37.528;2023-05-13T09:47:43;100101.88;;;28.29;21.47
35435;BME280;21556;55.782;37.528;2023-05-13T09:50:24;100105.31;;;28.85;21.67
35435;BME280;21556;55.782;37.528;2023-05-13T09:52:55;100093.25;;;28.75;20.09
35435;BME280;21556;55.782;37.528;2023-05-13T09:55:49;100091.59;;;28.38;19.90
35435;BME280;21556;55.782;37.528;2023-05-13T09:58:16;100089.13;;;28.85;19.28
35435;BME280;21556;55.782;37.528;2023-05-13T10:00:51;100092.41;;;28.21;20.16
35435;BME280;21556;55.782;37.528;2023-05-13T10:03:18;100095.50;;;28.30;19.74
35435;BME280;21556;55.782;37.528;2023-05-13T10:05:47;100084.75;;;28.83;19.77
35435;BME280;21556;55.782;37.528;2023-05-13T10:08:19;100074.91;;;29.65;19.95
35435;BME280;21556;55.782;37.528;2023-05-13T10:10:53;100089.81;;;30.20;19.35
35435;BME280;21556;55.782;37.528;2023-05-13T10:13:24;100086.13;;;29.09;19.56
35435;BME280;21556;55.782;37.528;2023-05-13T10:15:53;100096.03;;;28.56;20.33
35435;BME280;21556;55.782;37.528;2023-05-13T10:18:22;100099.53;;;28.93;20.28
35435;BME280;21556;55.782;37.528;2023-05-13T10:20:48;100085.09;;;30.08;19.53
35435;BME280;21556;55.782;37.528;2023-05-13T10:23:22;100076.50;;;30.47;19.31
35435;BME280;21556;55.782;37.528;2023-05-13T10:25:50;100075.88;;;30.72;19.78
35435;BME280;21556;55.782;37.528;2023-05-13T10:28:18;100078.47;;;30.29;19.22
35435;BME280;21556;55.782;37.528;2023-05-13T10:30:49;100071.78;;;30.51;19.54
35435;BME280;21556;55.782;37.528;2023-05-13T10:33:17;100057.03;;;29.79;19.89
35435;BME280;21556;55.782;37.528;2023-05-13T10:35:55;100065.59;;;29.71;19.92
35435;BME280;21556;55.782;37.528;2023-05-13T10:38:58;100077.59;;;29.16;20.31
35435;BME280;21556;55.782;37.528;2023-05-13T10:44:19;100068.69;;;29.14;20.96
35435;BME280;21556;55.782;37.528;2023-05-13T10:46:47;100079.03;;;28.37;20.84
35435;BME280;21556;55.782;37.528;2023-05-13T10:49:17;100074.84;;;28.48;20.85
35435;BME280;21556;55.782;37.528;2023-05-13T10:51:49;100083.03;;;28.28;21.46
35435;BME280;21556;55.782;37.528;2023-05-13T10:54:22;100079.00;;;28.19;20.96
35435;BME280;21556;55.782;37.528;2023-05-13T10:56:55;100078.91;;;27.47;21.78
35435;BME280;21556;55.782;37.528;2023-05-13T10:59:22;100082.69;;;26.83;22.74
35435;BME280;21556;55.782;37.528;2023-05-13T11:01:49;100077.09;;;26.25;22.86
35435;BME280;21556;55.782;37.528;2023-05-13T11:04:19;100080.38;;;26.11;23.48
35435;BME280;21556;55.782;37.528;2023-05-13T11:06:48;100081.56;;;26.48;23.67
35435;BME280;21556;55.782;37.528;2023-05-13T11:11:52;100074.06;;;26.75;23.21
35435;BME280;21556;55.782;37.528;2023-05-13T11:14:20;100081.84;;;25.96;23.43
35435;BME280;21556;55.782;37.528;2023-05-13T11:17:08;100080.88;;;25.30;23.91
35435;BME280;21556;55.782;37.528;2023-05-13T11:19:37;100089.84;;;25.76;24.17
35435;BME280;21556;55.782;37.528;2023-05-13T11:24:45;100080.69;;;25.58;23.51
35435;BME280;21556;55.782;37.528;2023-05-13T11:27:32;100072.47;;;25.39;24.17
35435;BME280;21556;55.782;37.528;2023-05-13T11:30:05;100079.78;;;25.81;23.88
35435;BME280;21556;55.782;37.528;2023-05-13T11:32:58;100082.38;;;26.06;23.98
35435;BME280;21556;55.782;37.528;2023-05-13T11:35:31;100078.66;;;26.30;23.76
35435;BME280;21556;55.782;37.528;2023-05-13T11:38:01;100089.69;;;26.02;24.26
35435;BME280;21556;55.782;37.528;2023-05-13T11:40:35;100081.03;;;26.38;24.03
35435;BME280;21556;55.782;37.528;2023-05-13T11:43:03;100075.44;;;26.42;23.73
35435;BME280;21556;55.782;37.528;2023-05-13T11:45:30;100079.66;;;26.28;23.63
35435;BME280;21556;55.782;37.528;2023-05-13T11:47:57;100084.91;;;26.31;24.39
35435;BME280;21556;55.782;37.528;2023-05-13T11:50:28;100068.72;;;25.88;21.55
35435;BME280;21556;55.782;37.528;2023-05-13T11:52:59;100063.78;;;26.00;21.04
35435;BME280;21556;55.782;37.528;2023-05-13T11:55:33;100056.91;;;25.24;21.15
35435;BME280;21556;55.782;37.528;2023-05-13T11:58:04;100053.72;;;25.14;21.57
35435;BME280;21556;55.782;37.528;2023-05-13T12:00:31;100045.13;;;25.51;22.21
35435;BME280;21556;55.782;37.528;2023-05-13T12:02:58;100048.72;;;25.28;22.04
35435;BME280;21556;55.782;37.528;2023-05-13T12:05:28;100050.63;;;25.48;22.02
35435;BME280;21556;55.782;37.528;2023-05-13T12:07:56;100046.25;;;25.45;22.36
35435;BME280;21556;55.782;37.528;2023-05-13T12:10:24;100047.34;;;25.40;22.71
35435;BME280;21556;55.782;37.528;2023-05-13T12:12:52;100048.88;;;25.47;23.07
35435;BME280;21556;55.782;37.528;2023-05-13T12:15:21;100062.06;;;25.99;22.75
35435;BME280;21556;55.782;37.528;2023-05-13T12:17:48;100055.97;;;26.15;23.21
35435;BME280;21556;55.782;37.528;2023-05-13T12:20:19;100048.25;;;26.08;22.96
35435;BME280;21556;55.782;37.528;2023-05-13T12:22:52;100042.63;;;26.34;22.54
35435;BME280;21556;55.782;37.528;2023-05-13T12:30:36;100063.69;;;25.57;23.72
35435;BME280;21556;55.782;37.528;2023-05-13T12:33:14;100056.88;;;25.70;23.95
35435;BME280;21556;55.782;37.528;2023-05-13T12:35:45;100056.56;;;25.09;23.69
35435;BME280;21556;55.782;37.528;2023-05-13T12:38:19;100046.69;;;25.10;23.79
35435;BME280;21556;55.782;37.528;2023-05-13T12:40:53;100051.06;;;24.89;24.08
35435;BME280;21556;55.782;37.528;2023-05-13T12:43:21;100038.47;;;25.61;23.50
35435;BME280;21556;55.782;37.528;2023-05-13T12:45:51;100044.25;;;25.27;23.65
35435;BME280;21556;55.782;37.528;2023-05-13T12:48:53;100034.91;;;25.61;22.53
35435;BME280;21556;55.782;37.528;2023-05-13T12:51:22;100042.59;;;25.25;22.84
35435;BME280;21556;55.782;37.528;2023-05-13T12:53:50;100037.84;;;24.58;23.46
35435;BME280;21556;55.782;37.528;2023-05-13T12:56:22;100038.97;;;25.49;23.52
35435;BME280;21556;55.782;37.528;2023-05-13T12:58:50;100045.34;;;25.45;23.84
35435;BME280;21556;55.782;37.528;2023-05-13T13:01:20;100038.78;;;25.30;24.04
35435;BME280;21556;55.782;37.528;2023-05-13T13:04:01;100041.19;;;25.14;24.27
35435;BME280;21556;55.782;37.528;2023-05-13T13:06:29;100045.91;;;25.31;24.25
35435;BME280;21556;55.782;37.528;2023-05-13T13:08:58;100038.13;;;25.24;24.35
35435;BME280;21556;55.782;37.528;2023-05-13T13:11:25;100034.06;;;25.59;23.97
35435;BME280;21556;55.782;37.528;2023-05-13T13:13:56;100043.00;;;25.59;24.52
35435;BME280;21556;55.782;37.528;2023-05-13T13:16:27;100025.84;;;25.18;24.64
35435;BME280;21556;55.782;37.528;2023-05-13T13:19:04;100031.97;;;24.96;24.98
35435;BME280;21556;55.782;37.528;2023-05-13T13:21:34;100039.25;;;25.18;25.39